National Weather Service Raw Text Product

Displaying AFOS PIL: TAFOTM Received: 2017-10-13 11:38 UTC


695 
FTUS43 KDMX 131138
TAFOTM
TAF
KOTM 131138Z 1312/1412 13004KT 6SM BR OVC080
     FM131400 12005KT P6SM BKN060
     FM132000 06006KT P6SM BKN050
     FM132200 04007KT P6SM VCTS OVC020CB
     FM140600 05007KT P6SM OVC007
     FM141000 06006KT 6SM SHRA VCTS BKN005CB=